createdAt,value
2022-11-17T00:02:24.754Z,7.95
2022-11-17T00:04:51.779Z,8.65
2022-11-17T00:07:18.868Z,8.73
2022-11-17T00:09:48.184Z,8.27
2022-11-17T00:12:33.707Z,8.68
2022-11-17T00:15:00.764Z,7.80
2022-11-17T00:17:28.285Z,8.45
2022-11-17T00:20:13.982Z,8.50
2022-11-17T00:22:41.022Z,8.75
2022-11-17T00:25:10.578Z,8.88
2022-11-17T00:27:38.040Z,8.57
2022-11-17T00:30:06.804Z,8.10
2022-11-17T00:32:52.627Z,8.50
2022-11-17T00:35:19.657Z,7.57
2022-11-17T00:38:05.446Z,7.88
2022-11-17T00:40:32.545Z,7.78
2022-11-17T00:42:59.584Z,7.75
2022-11-17T00:45:26.527Z,8.07
2022-11-17T00:47:53.925Z,8.02
2022-11-17T00:50:20.858Z,8.45
2022-11-17T00:52:48.113Z,7.57
2022-11-17T00:55:15.313Z,8.25
2022-11-17T00:57:43.222Z,7.50
2022-11-17T01:00:10.645Z,8.23
2022-11-17T01:02:37.721Z,7.97
2022-11-17T01:05:07.396Z,8.35
2022-11-17T01:07:34.677Z,8.15
2022-11-17T01:10:01.862Z,7.93
2022-11-17T01:12:30.279Z,7.88
2022-11-17T01:14:57.252Z,8.82
2022-11-17T01:17:24.302Z,7.88
2022-11-17T01:19:51.492Z,7.75
2022-11-17T01:22:18.478Z,8.30
2022-11-17T01:24:45.434Z,8.10
2022-11-17T01:27:14.947Z,7.65
2022-11-17T01:29:41.902Z,7.82
2022-11-17T01:32:11.958Z,9.07
2022-11-17T01:34:42.078Z,8.60
2022-11-17T01:37:21.286Z,8.07
2022-11-17T01:39:50.219Z,8.20
2022-11-17T01:42:23.781Z,8.32
2022-11-17T01:44:55.469Z,7.72
2022-11-17T01:47:35.531Z,8.10
2022-11-17T01:50:33.622Z,7.82
2022-11-17T01:53:05.019Z,8.45
2022-11-17T01:55:37.011Z,7.80
2022-11-17T01:58:18.348Z,7.32
2022-11-17T02:00:45.376Z,7.93
2022-11-17T02:03:13.039Z,7.82
2022-11-17T02:06:07.213Z,8.85
2022-11-17T02:08:39.006Z,7.82
2022-11-17T02:11:11.950Z,8.40
2022-11-17T02:13:40.837Z,8.00
2022-11-17T02:16:27.916Z,8.32
2022-11-17T02:18:55.599Z,8.60
2022-11-17T02:21:40.909Z,8.55
2022-11-17T02:24:37.418Z,7.38
2022-11-17T02:27:43.121Z,7.83
2022-11-17T02:30:20.310Z,7.68
2022-11-17T02:33:03.132Z,7.88
2022-11-17T02:35:47.434Z,7.93
2022-11-17T02:38:28.902Z,8.43
2022-11-17T02:41:29.313Z,7.67
2022-11-17T02:44:13.813Z,7.18
2022-11-17T02:46:53.957Z,6.93
2022-11-17T02:49:29.825Z,8.25
2022-11-17T02:51:58.766Z,8.52
2022-11-17T02:54:29.805Z,7.90
2022-11-17T02:56:57.074Z,8.80
2022-11-17T02:59:30.970Z,8.13
2022-11-17T03:02:15.308Z,8.77
2022-11-17T03:04:47.221Z,8.48
2022-11-17T03:07:23.417Z,8.73
2022-11-17T03:10:03.035Z,8.52
2022-11-17T03:12:47.771Z,8.80
2022-11-17T03:15:36.691Z,8.25
2022-11-17T03:18:12.597Z,8.75
2022-11-17T03:20:50.101Z,8.93
2022-11-17T03:23:42.685Z,8.60
2022-11-17T03:26:16.823Z,8.40
2022-11-17T03:28:46.623Z,7.82
2022-11-17T03:31:16.771Z,14.80
2022-11-17T03:33:46.983Z,8.63
2022-11-17T03:36:17.081Z,8.02
2022-11-17T03:38:58.190Z,9.07
2022-11-17T03:41:29.113Z,8.68
2022-11-17T03:43:58.490Z,8.15
2022-11-17T03:46:28.853Z,9.37
2022-11-17T03:49:05.782Z,8.68
2022-11-17T03:51:33.786Z,8.52
2022-11-17T03:54:01.156Z,8.73
2022-11-17T03:56:37.234Z,8.93
2022-11-17T03:59:12.719Z,8.10
2022-11-17T04:01:39.909Z,8.48
2022-11-17T04:04:06.990Z,8.13
2022-11-17T04:06:33.925Z,8.73
2022-11-17T04:09:00.951Z,8.05
2022-11-17T04:11:46.553Z,8.37
2022-11-17T04:14:32.195Z,8.80
2022-11-17T04:16:59.218Z,9.10
2022-11-17T04:19:26.253Z,8.80
2022-11-17T04:21:53.290Z,8.40
2022-11-17T04:24:20.242Z,8.23
2022-11-17T04:29:46.909Z,9.00
2022-11-17T04:32:13.870Z,9.30
2022-11-17T04:34:42.713Z,9.70
2022-11-17T04:37:17.555Z,9.73
2022-11-17T04:39:45.973Z,9.57
2022-11-17T04:42:13.170Z,10.25
2022-11-17T04:44:40.231Z,9.95
2022-11-17T04:47:07.264Z,10.15
2022-11-17T04:49:34.655Z,10.50
2022-11-17T04:52:01.635Z,11.02
2022-11-17T04:54:29.067Z,9.05
2022-11-17T04:56:56.436Z,9.75
2022-11-17T04:59:23.913Z,9.40
2022-11-17T05:01:51.115Z,8.40
2022-11-17T05:04:38.605Z,8.98
2022-11-17T05:07:06.319Z,9.10
2022-11-17T05:09:33.641Z,9.80
2022-11-17T05:12:19.319Z,9.65
2022-11-17T05:14:49.223Z,9.57
2022-11-17T05:17:16.839Z,10.55
2022-11-17T05:19:48.394Z,9.77
2022-11-17T05:22:40.966Z,9.13
2022-11-17T05:25:09.260Z,9.65
2022-11-17T05:27:36.746Z,9.50
2022-11-17T05:30:06.775Z,9.90
2022-11-17T05:32:33.920Z,9.27
2022-11-17T05:35:03.630Z,9.85
2022-11-17T05:37:38.037Z,9.02
2022-11-17T05:40:05.701Z,9.10
2022-11-17T05:42:35.977Z,8.65
2022-11-17T05:45:06.173Z,8.40
2022-11-17T05:47:33.179Z,8.57
2022-11-17T05:50:00.155Z,9.35
2022-11-17T05:52:27.316Z,8.87
2022-11-17T05:54:54.258Z,9.88
2022-11-17T05:57:29.520Z,10.40
2022-11-17T06:00:01.874Z,12.57
2022-11-17T06:02:42.767Z,12.88
2022-11-17T06:05:13.253Z,14.17
2022-11-17T06:07:44.632Z,15.95
2022-11-17T06:10:12.290Z,16.50
2022-11-17T06:12:39.941Z,15.45
2022-11-17T06:15:07.295Z,15.38
2022-11-17T06:17:38.971Z,15.77
2022-11-17T06:20:21.790Z,15.05
2022-11-17T06:22:50.330Z,14.25
2022-11-17T06:25:19.931Z,15.35
2022-11-17T06:27:48.792Z,15.27
2022-11-17T06:30:15.761Z,16.13
2022-11-17T06:32:44.191Z,13.75
2022-11-17T06:35:14.320Z,13.35
2022-11-17T06:37:41.228Z,12.88
2022-11-17T06:40:10.065Z,15.68
2022-11-17T06:42:58.160Z,14.40
2022-11-17T06:45:25.628Z,14.82
2022-11-17T06:47:53.647Z,16.35
2022-11-17T06:50:22.651Z,16.17
2022-11-17T06:52:49.808Z,17.55
2022-11-17T06:55:17.045Z,18.17
2022-11-17T06:57:46.596Z,18.15
2022-11-17T07:00:18.016Z,18.30
2022-11-17T07:02:45.119Z,18.45
2022-11-17T07:05:12.174Z,19.40
2022-11-17T07:07:39.317Z,19.50
2022-11-17T07:10:06.835Z,18.27
2022-11-17T07:12:33.913Z,17.00
2022-11-17T07:15:01.165Z,14.23
2022-11-17T07:17:31.886Z,15.23
2022-11-17T07:19:59.030Z,15.77
2022-11-17T07:22:26.076Z,16.10
2022-11-17T07:24:53.127Z,18.02
2022-11-17T07:27:20.147Z,16.90
2022-11-17T07:29:47.065Z,16.42
2022-11-17T07:32:14.297Z,14.77
2022-11-17T07:34:41.410Z,13.57
2022-11-17T07:37:08.628Z,12.30
2022-11-17T07:39:35.741Z,10.00
2022-11-17T07:42:02.766Z,10.10
2022-11-17T07:44:29.843Z,10.40
2022-11-17T07:46:56.844Z,9.40
2022-11-17T07:49:24.198Z,8.95
2022-11-17T07:51:51.290Z,9.70
2022-11-17T07:54:18.479Z,9.80
2022-11-17T07:56:45.799Z,9.30
2022-11-17T07:59:17.169Z,8.65
2022-11-17T08:01:47.037Z,10.05
2022-11-17T08:04:14.434Z,8.85
2022-11-17T08:06:41.609Z,10.85
2022-11-17T08:09:13.557Z,10.77
2022-11-17T08:11:40.572Z,11.20
2022-11-17T08:14:13.010Z,11.35
2022-11-17T08:16:40.206Z,11.60
2022-11-17T08:19:07.210Z,12.55
2022-11-17T08:21:37.196Z,11.63
2022-11-17T08:24:04.941Z,11.27
2022-11-17T08:26:34.248Z,11.68
2022-11-17T08:29:05.016Z,10.82
2022-11-17T08:31:33.011Z,11.90
2022-11-17T08:34:00.190Z,9.10
2022-11-17T08:36:27.200Z,9.88
2022-11-17T08:38:54.139Z,10.52
2022-11-17T08:41:21.983Z,10.85
2022-11-17T08:43:50.601Z,11.05
2022-11-17T08:46:17.602Z,9.63
2022-11-17T08:48:44.559Z,10.55
2022-11-17T08:51:14.190Z,10.80
2022-11-17T08:53:41.194Z,11.32
2022-11-17T08:56:09.660Z,10.27
2022-11-17T08:58:44.547Z,8.30
2022-11-17T09:01:13.200Z,8.20
2022-11-17T09:03:42.488Z,9.57
2022-11-17T09:06:09.390Z,8.98
2022-11-17T09:08:46.014Z,8.70
2022-11-17T09:11:14.724Z,7.53
2022-11-17T09:13:42.343Z,8.15
2022-11-17T09:16:11.872Z,8.90
2022-11-17T09:18:40.112Z,7.90
2022-11-17T09:21:10.738Z,7.78
2022-11-17T09:23:38.157Z,7.93
2022-11-17T09:26:16.559Z,8.23
2022-11-17T09:28:44.989Z,7.70
2022-11-17T09:31:16.589Z,8.65
2022-11-17T09:33:44.790Z,7.68
2022-11-17T09:36:13.888Z,8.37
2022-11-17T09:38:41.600Z,8.05
2022-11-17T09:41:21.951Z,9.40
2022-11-17T09:44:06.326Z,9.80
2022-11-17T09:46:45.117Z,7.50
2022-11-17T09:49:33.749Z,9.10
2022-11-17T09:52:09.739Z,7.70
2022-11-17T09:54:43.429Z,6.60
2022-11-17T09:57:22.634Z,6.57
2022-11-17T10:00:02.273Z,7.05
2022-11-17T10:02:33.282Z,6.77
2022-11-17T10:05:01.104Z,7.10
2022-11-17T10:07:31.852Z,7.10
2022-11-17T10:10:05.801Z,7.30
2022-11-17T10:12:47.906Z,6.97
2022-11-17T10:15:27.544Z,7.60
2022-11-17T10:17:54.450Z,7.40
2022-11-17T10:20:22.138Z,6.13
2022-11-17T10:22:52.449Z,7.00
2022-11-17T10:25:39.195Z,5.80
2022-11-17T10:28:08.857Z,5.80
2022-11-17T10:30:36.360Z,5.00
2022-11-17T10:33:04.259Z,5.70
2022-11-17T10:35:33.928Z,5.57
2022-11-17T10:38:06.058Z,7.20
2022-11-17T10:40:47.755Z,5.90
2022-11-17T10:43:15.343Z,8.05
2022-11-17T10:45:50.178Z,9.43
2022-11-17T10:48:37.045Z,10.27
2022-11-17T10:51:09.336Z,7.47
2022-11-17T10:53:46.178Z,5.87
2022-11-17T10:56:21.955Z,5.25
2022-11-17T10:58:55.035Z,6.78
2022-11-17T11:01:50.732Z,6.47
2022-11-17T11:04:41.956Z,5.20
2022-11-17T11:07:20.297Z,4.73
2022-11-17T11:10:03.039Z,4.07
2022-11-17T11:12:47.658Z,4.90
2022-11-17T11:15:20.277Z,4.22
2022-11-17T11:17:47.968Z,4.95
2022-11-17T11:20:18.219Z,5.20
2022-11-17T11:22:59.518Z,4.60
2022-11-17T11:25:29.566Z,4.68
2022-11-17T11:28:11.789Z,4.68
2022-11-17T11:30:47.500Z,4.47
2022-11-17T11:33:30.365Z,4.70
2022-11-17T11:36:21.541Z,5.63
2022-11-17T11:39:12.322Z,4.60
2022-11-17T11:42:15.055Z,5.72
2022-11-17T11:44:54.073Z,5.15
2022-11-17T11:47:24.045Z,5.23
2022-11-17T11:50:27.340Z,5.53
2022-11-17T11:53:11.188Z,6.10
2022-11-17T11:55:41.374Z,5.97
2022-11-17T11:58:21.893Z,5.75
2022-11-17T12:01:04.925Z,5.90
2022-11-17T12:03:43.692Z,5.50
2022-11-17T12:06:38.187Z,6.10
2022-11-17T12:09:33.151Z,5.53
2022-11-17T12:12:08.668Z,5.90
2022-11-17T12:14:37.934Z,5.47
2022-11-17T12:17:14.128Z,5.63
2022-11-17T12:19:53.993Z,4.70
2022-11-17T12:22:29.894Z,4.40
2022-11-17T12:25:00.197Z,4.63
2022-11-17T12:27:36.752Z,4.67
2022-11-17T12:30:06.163Z,5.28
2022-11-17T12:32:45.301Z,5.28
2022-11-17T12:35:33.699Z,4.57
2022-11-17T12:38:16.453Z,4.28
2022-11-17T12:40:51.363Z,6.60
2022-11-17T12:43:25.571Z,5.32
2022-11-17T12:45:55.564Z,4.50
2022-11-17T12:48:34.964Z,4.75
2022-11-17T12:51:11.447Z,4.22
2022-11-17T12:54:04.310Z,3.73
2022-11-17T12:56:47.416Z,4.35
2022-11-17T12:59:46.672Z,4.18
2022-11-17T13:02:31.907Z,4.45
2022-11-17T13:05:20.747Z,4.72
2022-11-17T13:07:51.957Z,4.67
2022-11-17T13:10:25.028Z,4.93
2022-11-17T13:13:10.997Z,4.00
2022-11-17T13:15:38.415Z,3.50
2022-11-17T13:18:44.197Z,3.35
2022-11-17T13:21:46.762Z,3.03
2022-11-17T13:24:30.266Z,3.05
2022-11-17T13:27:03.315Z,4.10
2022-11-17T13:29:40.616Z,4.25
2022-11-17T13:36:09.111Z,3.53
2022-11-17T13:38:38.523Z,3.75
2022-11-17T13:41:10.375Z,3.47
2022-11-17T13:43:54.544Z,4.10
2022-11-17T13:46:29.150Z,3.60
2022-11-17T13:48:56.372Z,3.90
2022-11-17T13:51:52.313Z,3.53
2022-11-17T13:54:37.415Z,3.20
2022-11-17T13:57:29.074Z,3.67
2022-11-17T14:00:01.457Z,3.45
2022-11-17T14:02:31.755Z,3.53
2022-11-17T14:05:15.562Z,3.22
2022-11-17T14:08:00.191Z,3.42
2022-11-17T14:10:39.498Z,3.28
2022-11-17T14:13:06.589Z,3.20
2022-11-17T14:15:41.421Z,2.87
2022-11-17T14:18:39.973Z,3.83
2022-11-17T14:21:18.017Z,3.78
2022-11-17T14:23:52.909Z,3.80
2022-11-17T14:26:38.068Z,4.13
2022-11-17T14:29:05.205Z,3.70
2022-11-17T14:31:34.972Z,3.63
2022-11-17T14:34:16.546Z,3.45
2022-11-17T14:37:10.366Z,3.40
2022-11-17T14:39:46.450Z,3.15
2022-11-17T14:42:14.487Z,3.40
2022-11-17T14:44:41.738Z,3.35
2022-11-17T14:47:08.807Z,3.78
2022-11-17T14:49:35.967Z,3.40
2022-11-17T14:52:06.137Z,3.97
2022-11-17T14:54:33.276Z,3.50
2022-11-17T14:57:00.602Z,3.88
2022-11-17T14:59:27.844Z,3.65
2022-11-17T15:02:01.224Z,3.50
2022-11-17T15:04:51.304Z,3.65
2022-11-17T15:07:21.603Z,3.27
2022-11-17T15:09:52.786Z,3.70
2022-11-17T15:12:21.569Z,4.10
2022-11-17T15:14:51.197Z,3.80
2022-11-17T15:17:28.217Z,4.03
2022-11-17T15:23:44.114Z,3.60
2022-11-17T15:29:36.823Z,3.28
2022-11-17T15:32:19.042Z,3.38
2022-11-17T15:35:47.865Z,3.33
2022-11-17T15:37:55.204Z,3.28
2022-11-17T15:40:22.752Z,3.33
2022-11-17T15:42:53.363Z,3.50
2022-11-17T15:45:25.157Z,3.20
2022-11-17T15:47:56.610Z,3.30
2022-11-17T15:50:45.529Z,3.88
2022-11-17T15:53:22.469Z,3.53
2022-11-17T15:56:28.226Z,3.20
2022-11-17T15:59:10.893Z,3.38
2022-11-17T16:01:39.296Z,3.33
2022-11-17T16:04:17.283Z,3.38
2022-11-17T16:06:46.128Z,3.40
2022-11-17T16:09:14.415Z,3.08
2022-11-17T16:11:41.900Z,3.17
2022-11-17T16:14:09.347Z,3.00
2022-11-17T16:16:38.345Z,3.15
2022-11-17T16:19:06.309Z,4.18
2022-11-17T16:21:33.651Z,3.13
2022-11-17T16:24:03.147Z,3.50
2022-11-17T16:26:34.655Z,3.10
2022-11-17T16:29:09.119Z,3.50
2022-11-17T16:31:43.808Z,3.55
2022-11-17T16:34:36.934Z,3.63
2022-11-17T16:37:21.225Z,3.50
2022-11-17T16:39:51.332Z,3.50
2022-11-17T16:42:21.656Z,3.60
2022-11-17T16:44:48.854Z,3.30
2022-11-17T16:47:17.202Z,3.40
2022-11-17T16:49:52.047Z,2.72
2022-11-17T16:53:48.168Z,3.03
2022-11-17T16:56:15.621Z,3.28
2022-11-17T16:58:42.864Z,3.22
2022-11-17T17:01:21.333Z,2.97
2022-11-17T17:03:48.925Z,3.08
2022-11-17T17:06:18.172Z,3.53
2022-11-17T17:08:49.823Z,3.72
2022-11-17T17:11:21.388Z,3.72
2022-11-17T17:13:48.621Z,3.60
2022-11-17T17:16:17.910Z,3.47
2022-11-17T17:18:45.659Z,3.60
2022-11-17T17:21:16.633Z,3.42
2022-11-17T17:23:46.127Z,3.83
2022-11-17T17:26:18.548Z,3.83
2022-11-17T17:28:48.525Z,3.88
2022-11-17T17:31:22.264Z,3.73
2022-11-17T17:33:53.913Z,2.97
2022-11-17T17:36:23.190Z,3.70
2022-11-17T17:38:56.328Z,3.97
2022-11-17T17:41:29.752Z,3.67
2022-11-17T17:43:59.750Z,3.70
2022-11-17T17:46:29.958Z,2.80
2022-11-17T17:48:58.307Z,3.50
2022-11-17T17:51:28.880Z,3.60
2022-11-17T17:54:14.675Z,3.50
2022-11-17T17:59:36.617Z,3.88
2022-11-17T18:02:03.979Z,3.60
2022-11-17T18:04:31.066Z,4.00
2022-11-17T18:07:04.290Z,3.28
2022-11-17T18:09:31.780Z,4.10
2022-11-17T18:12:04.582Z,3.53
2022-11-17T18:14:31.717Z,4.03
2022-11-17T18:16:58.969Z,3.45
2022-11-17T18:19:32.550Z,3.63
2022-11-17T18:22:03.383Z,3.50
2022-11-17T18:24:30.286Z,3.60
2022-11-17T18:26:59.940Z,3.20
2022-11-17T18:29:29.253Z,3.45
2022-11-17T18:31:59.286Z,2.97
2022-11-17T18:34:28.538Z,3.30
2022-11-17T18:36:58.858Z,3.55
2022-11-17T18:39:28.440Z,3.42
2022-11-17T18:42:03.126Z,3.17
2022-11-17T18:44:31.085Z,3.30
2022-11-17T18:47:02.445Z,3.83
2022-11-17T18:49:31.486Z,3.25
2022-11-17T18:51:59.952Z,3.38
2022-11-17T18:54:30.196Z,3.20
2022-11-17T18:56:58.330Z,3.40
2022-11-17T18:59:30.430Z,3.13
2022-11-17T19:02:00.575Z,3.38
2022-11-17T19:04:33.010Z,3.97
2022-11-17T19:07:03.525Z,3.85
2022-11-17T19:09:30.637Z,3.40
2022-11-17T19:11:57.564Z,3.00
2022-11-17T19:14:24.608Z,3.15
2022-11-17T19:16:52.876Z,3.90
2022-11-17T19:19:20.206Z,3.70
2022-11-17T19:21:47.608Z,3.35
2022-11-17T19:24:14.577Z,2.90
2022-11-17T19:26:43.942Z,3.72
2022-11-17T19:29:17.091Z,3.38
2022-11-17T19:31:46.324Z,3.28
2022-11-17T19:34:14.507Z,3.60
2022-11-17T19:36:42.140Z,3.73
2022-11-17T19:39:11.514Z,3.58
2022-11-17T19:41:40.015Z,4.20
2022-11-17T19:44:09.954Z,3.55
2022-11-17T19:46:37.740Z,4.00
2022-11-17T19:49:07.265Z,3.53
2022-11-17T19:52:03.780Z,3.60
2022-11-17T19:54:30.745Z,4.53
2022-11-17T19:56:57.865Z,3.75
2022-11-17T19:59:27.079Z,4.78
2022-11-17T20:02:00.933Z,3.50
2022-11-17T20:04:32.777Z,3.47
2022-11-17T20:07:19.014Z,3.88
2022-11-17T20:09:46.152Z,3.83
2022-11-17T20:12:18.718Z,4.18
2022-11-17T20:14:47.336Z,3.40
2022-11-17T20:17:19.637Z,3.97
2022-11-17T20:19:46.593Z,4.32
2022-11-17T20:22:17.652Z,4.70
2022-11-17T20:24:44.740Z,3.80
2022-11-17T20:27:14.608Z,4.17
2022-11-17T20:29:43.998Z,4.40
2022-11-17T20:32:11.925Z,4.20
2022-11-17T20:34:41.920Z,4.18
2022-11-17T20:37:08.984Z,4.13
2022-11-17T20:39:38.429Z,3.13
2022-11-17T20:42:05.416Z,3.92
2022-11-17T20:44:37.688Z,4.38
2022-11-17T20:47:07.196Z,4.38
2022-11-17T20:49:40.801Z,4.00
2022-11-17T20:52:13.587Z,5.27
2022-11-17T20:54:43.910Z,3.80
2022-11-17T20:57:12.969Z,4.45
2022-11-17T20:59:46.112Z,4.57
2022-11-17T21:02:13.343Z,4.03
2022-11-17T21:04:40.825Z,4.30
2022-11-17T21:07:07.877Z,4.05
2022-11-17T21:09:39.205Z,4.60
2022-11-17T21:12:13.727Z,4.22
2022-11-17T21:14:44.021Z,4.13
2022-11-17T21:17:32.517Z,4.30
2022-11-17T21:19:59.888Z,4.10
2022-11-17T21:22:27.104Z,4.60
2022-11-17T21:24:54.144Z,4.65
2022-11-17T21:27:21.570Z,4.55
2022-11-17T21:29:48.946Z,4.30
2022-11-17T21:32:17.123Z,4.50
2022-11-17T21:34:49.844Z,4.82
2022-11-17T21:37:17.498Z,4.45
2022-11-17T21:39:44.488Z,4.90
2022-11-17T21:42:11.560Z,4.33
2022-11-17T21:44:39.401Z,3.95
2022-11-17T21:47:07.997Z,4.45
2022-11-17T21:49:35.094Z,5.00
2022-11-17T21:52:01.996Z,4.47
2022-11-17T21:54:29.046Z,4.30
2022-11-17T21:56:56.073Z,4.22
2022-11-17T21:59:23.140Z,5.30
2022-11-17T22:01:50.067Z,4.93
2022-11-17T22:04:17.481Z,4.18
2022-11-17T22:06:44.541Z,4.20
2022-11-17T22:09:11.663Z,4.72
2022-11-17T22:11:38.954Z,4.20
2022-11-17T22:14:08.962Z,4.30
2022-11-17T22:16:49.885Z,4.90
2022-11-17T22:19:18.634Z,4.63
2022-11-17T22:21:48.697Z,4.78
2022-11-17T22:24:16.042Z,4.35
2022-11-17T22:26:44.262Z,4.55
2022-11-17T22:29:14.933Z,4.40
2022-11-17T22:31:42.719Z,4.60
2022-11-17T22:34:09.996Z,4.03
2022-11-17T22:36:36.918Z,4.40
2022-11-17T22:39:04.177Z,4.28
2022-11-17T22:41:31.481Z,4.45
2022-11-17T22:43:59.045Z,4.80
2022-11-17T22:46:28.184Z,4.63
2022-11-17T22:48:55.219Z,4.10
2022-11-17T22:51:40.880Z,4.47
2022-11-17T22:54:08.675Z,4.35
2022-11-17T22:56:36.302Z,4.40
2022-11-17T22:59:03.371Z,4.50
2022-11-17T23:01:30.482Z,4.72
2022-11-17T23:03:57.720Z,4.63
2022-11-17T23:06:24.756Z,4.57
2022-11-17T23:08:52.029Z,4.53
2022-11-17T23:14:09.073Z,4.15
2022-11-17T23:16:37.710Z,4.68
2022-11-17T23:19:06.220Z,4.03
2022-11-17T23:21:33.124Z,4.10
2022-11-17T23:24:03.788Z,4.47
2022-11-17T23:26:30.763Z,4.88
2022-11-17T23:28:58.351Z,4.28
2022-11-17T23:31:27.999Z,4.43
2022-11-17T23:33:55.304Z,4.30
2022-11-17T23:36:23.653Z,4.35
2022-11-17T23:38:51.775Z,3.97
2022-11-17T23:41:22.145Z,4.47
2022-11-17T23:43:54.541Z,4.05
2022-11-17T23:46:27.413Z,3.90
2022-11-17T23:48:57.214Z,4.30
2022-11-17T23:51:26.544Z,4.40
2022-11-17T23:53:53.689Z,4.28
2022-11-17T23:56:22.732Z,4.20
2022-11-17T23:58:51.122Z,3.47
